Time;durP1;ratioP1;P1;durP2;ratioP2;P2;SDS_P1;SDS_P2;PMS_P1;PMS_P2;Temp;Humidity;BMP_temperature;BMP_pressure;BME280_temperature;BME280_humidity;BME280_pressure;Samples;Min_cycle;Max_cycle;Signal;HPM_P1;HPM_P2
2024/03/10 00:01:10;;;;;;;42.43;27.87;;;;;;;;;;5078988;28;20966;-73
2024/03/10 00:03:37;;;;;;;44.27;30.20;;;;;;;;;;5077026;28;20543;-72
2024/03/10 00:06:08;;;;;;;44.97;30.90;;;;;;;;;;5077915;28;20448;-72
2024/03/10 00:08:34;;;;;;;40.93;29.50;;;;;;;;;;5076262;28;20496;-72
2024/03/10 00:11:01;;;;;;;39.47;27.33;;;;;;;;;;5079782;28;20570;-71
2024/03/10 00:13:27;;;;;;;41.83;29.77;;;;;;;;;;5078199;28;21171;-72
2024/03/10 00:15:55;;;;;;;45.30;28.30;;;;;;;;;;5084204;28;20535;-73
2024/03/10 00:18:21;;;;;;;40.83;28.30;;;;;;;;;;5077674;28;20505;-70
2024/03/10 00:20:47;;;;;;;50.13;29.97;;;;;;;;;;5073393;28;20957;-69
2024/03/10 00:23:15;;;;;;;41.03;27.97;;;;;;;;;;5082436;28;20468;-70
2024/03/10 00:25:43;;;;;;;44.40;30.43;;;;;;;;;;5078919;28;20488;-70
2024/03/10 00:28:09;;;;;;;45.40;30.20;;;;;;;;;;5069740;28;20455;-70
2024/03/10 00:30:35;;;;;;;43.83;27.77;;;;;;;;;;5082324;28;20436;-71
2024/03/10 00:33:02;;;;;;;39.43;26.57;;;;;;;;;;5077728;28;20546;-73
2024/03/10 00:35:29;;;;;;;42.27;28.33;;;;;;;;;;5074238;28;20953;-73
2024/03/10 00:37:55;;;;;;;40.27;27.27;;;;;;;;;;5078086;28;20455;-73
2024/03/10 00:40:23;;;;;;;45.43;28.90;;;;;;;;;;5066157;28;20520;-73
2024/03/10 00:42:50;;;;;;;46.67;30.10;;;;;;;;;;5073398;28;20472;-73
2024/03/10 00:45:17;;;;;;;45.47;29.03;;;;;;;;;;5077181;28;20560;-71
2024/03/10 00:47:45;;;;;;;42.73;27.40;;;;;;;;;;5079191;28;20464;-70
2024/03/10 00:50:11;;;;;;;41.03;27.97;;;;;;;;;;5074222;28;20482;-71
2024/03/10 00:52:37;;;;;;;42.60;29.17;;;;;;;;;;5072061;28;20841;-73
2024/03/10 00:55:04;;;;;;;46.80;30.73;;;;;;;;;;5075119;28;20460;-74
2024/03/10 00:57:32;;;;;;;43.33;29.40;;;;;;;;;;5075787;28;20586;-73
2024/03/10 00:59:59;;;;;;;41.40;29.30;;;;;;;;;;5076907;28;20483;-73
2024/03/10 01:02:26;;;;;;;38.67;28.07;;;;;;;;;;5070253;28;20542;-73
2024/03/10 01:04:53;;;;;;;44.90;27.90;;;;;;;;;;5080760;28;20536;-72
2024/03/10 01:07:20;;;;;;;39.30;27.80;;;;;;;;;;5077498;28;20486;-74
2024/03/10 01:09:46;;;;;;;43.73;28.70;;;;;;;;;;5078104;28;20444;-73
2024/03/10 01:12:13;;;;;;;44.83;28.13;;;;;;;;;;5076839;28;20428;-73
2024/03/10 01:14:41;;;;;;;43.20;28.60;;;;;;;;;;5079782;28;21131;-74
2024/03/10 01:17:08;;;;;;;39.20;26.87;;;;;;;;;;5073773;28;20495;-74
2024/03/10 01:19:35;;;;;;;39.90;27.20;;;;;;;;;;5073105;28;21034;-74
2024/03/10 01:22:01;;;;;;;42.23;28.27;;;;;;;;;;5072728;28;20581;-72
2024/03/10 01:24:28;;;;;;;39.10;26.90;;;;;;;;;;5072449;28;20525;-72
2024/03/10 01:26:55;;;;;;;43.47;30.27;;;;;;;;;;5078087;28;20478;-71
2024/03/10 01:29:22;;;;;;;41.13;28.27;;;;;;;;;;5078090;28;20579;-71
2024/03/10 01:31:50;;;;;;;37.50;27.23;;;;;;;;;;5076876;28;20533;-72
2024/03/10 01:34:19;;;;;;;40.80;27.77;;;;;;;;;;5078056;28;20531;-73
2024/03/10 01:36:45;;;;;;;39.43;27.20;;;;;;;;;;5070650;28;20492;-73
2024/03/10 01:39:12;;;;;;;40.93;27.70;;;;;;;;;;5084540;28;20491;-74
2024/03/10 01:41:38;;;;;;;43.93;30.13;;;;;;;;;;5076578;28;21039;-73
2024/03/10 01:44:05;;;;;;;40.87;27.17;;;;;;;;;;5077300;28;20464;-73
2024/03/10 01:46:31;;;;;;;42.00;29.57;;;;;;;;;;5081176;28;20527;-72
2024/03/10 01:48:59;;;;;;;45.87;28.23;;;;;;;;;;5084212;28;20475;-72
2024/03/10 01:51:26;;;;;;;49.90;31.13;;;;;;;;;;5079678;28;20206;-73
2024/03/10 01:53:52;;;;;;;45.73;30.50;;;;;;;;;;5079220;28;20479;-73
2024/03/10 01:56:19;;;;;;;44.93;29.87;;;;;;;;;;5081627;28;20571;-72
2024/03/10 01:58:46;;;;;;;43.77;30.13;;;;;;;;;;5080140;28;20560;-72
2024/03/10 02:01:14;;;;;;;42.37;30.10;;;;;;;;;;5080421;28;20482;-73
2024/03/10 02:03:40;;;;;;;46.50;29.47;;;;;;;;;;5079824;28;20444;-73
2024/03/10 02:06:09;;;;;;;50.80;30.70;;;;;;;;;;5087833;28;20479;-72
2024/03/10 02:08:36;;;;;;;45.10;30.07;;;;;;;;;;5079227;28;20567;-72
2024/03/10 02:11:03;;;;;;;54.90;32.83;;;;;;;;;;5079056;28;20522;-72
2024/03/10 02:13:29;;;;;;;51.60;31.27;;;;;;;;;;5078839;28;20544;-72
2024/03/10 02:16:00;;;;;;;51.67;32.00;;;;;;;;;;5086941;28;21047;-72
2024/03/10 02:18:28;;;;;;;51.80;32.97;;;;;;;;;;5076803;28;20463;-71
2024/03/10 02:20:54;;;;;;;52.00;31.53;;;;;;;;;;5088687;28;20924;-71
2024/03/10 02:23:24;;;;;;;51.30;30.93;;;;;;;;;;5073865;28;20456;-72
2024/03/10 02:25:52;;;;;;;49.57;33.07;;;;;;;;;;5076889;28;20452;-72
2024/03/10 02:28:34;;;;;;;48.20;31.70;;;;;;;;;;5079469;28;20461;-72
2024/03/10 02:47:11;;;;;;;47.40;31.30;;;;;;;;;;5081170;28;20455;-72
2024/03/10 02:47:31;;;;;;;47.20;29.67;;;;;;;;;;5077612;28;20498;-73
2024/03/10 02:50:01;;;;;;;46.03;29.60;;;;;;;;;;5078545;28;21125;-72
2024/03/10 02:52:28;;;;;;;41.20;29.60;;;;;;;;;;5078107;28;20508;-70
2024/03/10 02:54:55;;;;;;;46.20;29.97;;;;;;;;;;5079100;28;20519;-70
2024/03/10 02:57:23;;;;;;;44.03;28.80;;;;;;;;;;5076907;28;20487;-70
2024/03/10 02:59:50;;;;;;;42.83;30.23;;;;;;;;;;5083465;28;20549;-69
2024/03/10 03:02:18;;;;;;;44.60;29.37;;;;;;;;;;5084107;28;20542;-69
2024/03/10 03:04:45;;;;;;;43.97;29.50;;;;;;;;;;5080844;28;20577;-69
2024/03/10 03:07:11;;;;;;;45.00;29.83;;;;;;;;;;5080475;28;21067;-70
2024/03/10 03:09:38;;;;;;;51.53;31.03;;;;;;;;;;5083417;28;20483;-71
2024/03/10 03:12:04;;;;;;;41.70;29.90;;;;;;;;;;5077830;28;20820;-71
2024/03/10 03:14:32;;;;;;;45.30;28.60;;;;;;;;;;5076407;28;20483;-69
2024/03/10 03:16:59;;;;;;;43.70;29.13;;;;;;;;;;5079612;28;20508;-69
2024/03/10 03:19:26;;;;;;;43.80;29.27;;;;;;;;;;5076075;28;20487;-69
2024/03/10 03:21:52;;;;;;;47.73;31.50;;;;;;;;;;5074640;28;20851;-69
2024/03/10 03:24:19;;;;;;;46.67;29.63;;;;;;;;;;5079727;28;20531;-69
2024/03/10 03:26:46;;;;;;;51.00;31.87;;;;;;;;;;5079227;28;20959;-69
2024/03/10 03:29:13;;;;;;;47.13;30.40;;;;;;;;;;5080411;28;20516;-68
2024/03/10 03:31:42;;;;;;;43.67;30.40;;;;;;;;;;5075507;28;20494;-70
2024/03/10 03:34:09;;;;;;;49.13;31.40;;;;;;;;;;5075807;28;20482;-69
2024/03/10 03:36:36;;;;;;;48.97;30.97;;;;;;;;;;5076641;28;20484;-69
2024/03/10 03:39:05;;;;;;;42.93;30.30;;;;;;;;;;5075447;28;20455;-69
2024/03/10 03:41:31;;;;;;;48.43;31.23;;;;;;;;;;5074488;28;20455;-69
2024/03/10 03:43:59;;;;;;;45.23;31.37;;;;;;;;;;5081805;28;20464;-69
2024/03/10 03:46:25;;;;;;;47.33;31.50;;;;;;;;;;5081346;28;20519;-69
2024/03/10 03:48:53;;;;;;;49.53;31.33;;;;;;;;;;5080294;28;20460;-69
2024/03/10 03:51:19;;;;;;;46.13;31.50;;;;;;;;;;5070636;28;20947;-69
2024/03/10 03:53:46;;;;;;;47.00;30.70;;;;;;;;;;5076448;28;20511;-69
2024/03/10 03:56:13;;;;;;;44.90;27.37;;;;;;;;;;5075774;28;20500;-73
2024/03/10 03:58:40;;;;;;;44.70;29.60;;;;;;;;;;5079057;28;20486;-70
2024/03/10 04:01:07;;;;;;;42.03;29.37;;;;;;;;;;5081883;28;20784;-70
2024/03/10 04:03:33;;;;;;;45.20;30.17;;;;;;;;;;5079096;28;20446;-71
2024/03/10 04:06:01;;;;;;;48.40;29.07;;;;;;;;;;5072925;28;20476;-71
2024/03/10 04:08:28;;;;;;;41.03;29.23;;;;;;;;;;5076636;28;20523;-70
2024/03/10 04:10:54;;;;;;;45.33;31.63;;;;;;;;;;5079158;28;20515;-70
2024/03/10 04:13:20;;;;;;;46.97;30.20;;;;;;;;;;5079035;28;20498;-69
2024/03/10 04:15:47;;;;;;;42.73;29.90;;;;;;;;;;5078160;28;20888;-70
2024/03/10 04:18:13;;;;;;;41.57;28.93;;;;;;;;;;5085679;28;20548;-70
2024/03/10 04:20:41;;;;;;;42.37;29.63;;;;;;;;;;5075982;28;20531;-70
2024/03/10 04:23:10;;;;;;;40.63;28.07;;;;;;;;;;5075238;28;20523;-69
2024/03/10 04:25:36;;;;;;;44.00;29.30;;;;;;;;;;5074528;28;20459;-70
2024/03/10 04:28:03;;;;;;;40.17;28.70;;;;;;;;;;5079725;28;20474;-70
2024/03/10 04:30:29;;;;;;;44.53;29.00;;;;;;;;;;5080112;28;20486;-71
2024/03/10 04:32:56;;;;;;;43.60;29.93;;;;;;;;;;5076998;28;20483;-70
2024/03/10 04:35:24;;;;;;;44.20;29.33;;;;;;;;;;5088873;28;20817;-70
2024/03/10 04:37:50;;;;;;;41.23;28.43;;;;;;;;;;5073449;28;20480;-69
2024/03/10 04:40:18;;;;;;;45.87;29.47;;;;;;;;;;5074292;28;21050;-70
2024/03/10 04:42:45;;;;;;;45.23;29.20;;;;;;;;;;5075627;28;20461;-69
2024/03/10 04:45:12;;;;;;;42.43;28.23;;;;;;;;;;5087625;28;20558;-70
2024/03/10 04:47:38;;;;;;;46.20;30.03;;;;;;;;;;5080335;28;20460;-70
2024/03/10 04:50:05;;;;;;;41.03;30.10;;;;;;;;;;5085351;28;20439;-70
2024/03/10 04:52:31;;;;;;;49.00;30.60;;;;;;;;;;5083556;28;20450;-70
2024/03/10 04:54:58;;;;;;;47.97;31.67;;;;;;;;;;5083525;28;20455;-70
2024/03/10 04:57:26;;;;;;;43.23;28.97;;;;;;;;;;5078443;28;21285;-71
2024/03/10 04:59:52;;;;;;;41.20;28.80;;;;;;;;;;5079543;28;20463;-70
2024/03/10 05:02:19;;;;;;;47.77;30.73;;;;;;;;;;5078616;28;20443;-72
2024/03/10 05:04:48;;;;;;;49.60;30.60;;;;;;;;;;5085904;28;21174;-72
2024/03/10 05:07:15;;;;;;;41.53;28.13;;;;;;;;;;5086999;28;20470;-71
2024/03/10 05:09:41;;;;;;;50.53;31.53;;;;;;;;;;5078504;28;20490;-71
2024/03/10 05:12:08;;;;;;;45.90;28.77;;;;;;;;;;5079641;28;20482;-72
2024/03/10 05:14:36;;;;;;;48.30;30.60;;;;;;;;;;5080414;28;20941;-72
2024/03/10 05:17:03;;;;;;;41.10;29.03;;;;;;;;;;5080166;28;20574;-71
2024/03/10 05:19:29;;;;;;;44.53;30.60;;;;;;;;;;5080945;28;20495;-72
2024/03/10 05:21:56;;;;;;;51.07;32.10;;;;;;;;;;5069712;28;20536;-73
2024/03/10 05:24:22;;;;;;;40.10;28.70;;;;;;;;;;5070747;28;20443;-72
2024/03/10 05:26:49;;;;;;;47.70;31.07;;;;;;;;;;5086139;28;20545;-73
2024/03/10 05:29:16;;;;;;;41.00;29.60;;;;;;;;;;5088133;28;20465;-71
2024/03/10 05:31:44;;;;;;;46.97;31.60;;;;;;;;;;5071012;28;20496;-71
2024/03/10 05:34:10;;;;;;;43.93;28.67;;;;;;;;;;5078106;28;20447;-71
2024/03/10 05:36:37;;;;;;;43.10;28.70;;;;;;;;;;5075496;28;20924;-71
2024/03/10 05:39:03;;;;;;;43.80;28.37;;;;;;;;;;5078863;28;20563;-71
2024/03/10 05:41:29;;;;;;;42.33;28.50;;;;;;;;;;5082282;28;20482;-69
2024/03/10 05:43:56;;;;;;;47.10;29.60;;;;;;;;;;5077326;28;20523;-69
2024/03/10 05:46:22;;;;;;;44.40;28.87;;;;;;;;;;5079116;28;20526;-69
2024/03/10 05:48:50;;;;;;;44.37;29.60;;;;;;;;;;5076480;28;20537;-69
2024/03/10 05:51:17;;;;;;;40.50;29.23;;;;;;;;;;5076294;28;20487;-72
2024/03/10 05:53:44;;;;;;;40.37;29.10;;;;;;;;;;5074414;28;20479;-70
2024/03/10 05:56:10;;;;;;;42.27;30.33;;;;;;;;;;5076986;28;20444;-71
2024/03/10 05:58:38;;;;;;;44.87;29.00;;;;;;;;;;5074340;28;20497;-70
2024/03/10 06:01:04;;;;;;;46.73;29.37;;;;;;;;;;5075378;28;20509;-70
2024/03/10 06:03:31;;;;;;;46.73;30.63;;;;;;;;;;5076441;28;20535;-73
2024/03/10 06:05:59;;;;;;;45.87;29.80;;;;;;;;;;5077513;28;20499;-72
2024/03/10 06:08:25;;;;;;;50.23;34.07;;;;;;;;;;5080885;28;20750;-72
2024/03/10 06:10:51;;;;;;;48.47;33.00;;;;;;;;;;5075291;28;20444;-72
2024/03/10 06:13:18;;;;;;;47.60;31.70;;;;;;;;;;5073983;28;20692;-72
2024/03/10 06:15:44;;;;;;;46.77;29.50;;;;;;;;;;5075497;28;20483;-72
2024/03/10 06:18:18;;;;;;;43.37;29.13;;;;;;;;;;5074467;28;20999;-72
2024/03/10 06:26:14;;;;;;;44.40;28.90;;;;;;;;;;5072903;28;20451;-73
2024/03/10 06:28:41;;;;;;;51.33;31.60;;;;;;;;;;5076017;28;20957;-73
2024/03/10 06:31:07;;;;;;;48.10;30.30;;;;;;;;;;5073614;28;20443;-73
2024/03/10 06:33:38;;;;;;;47.20;30.10;;;;;;;;;;5076526;28;20475;-71
2024/03/10 06:36:08;;;;;;;47.30;31.80;;;;;;;;;;5079545;28;20436;-71
2024/03/10 06:38:36;;;;;;;50.43;30.77;;;;;;;;;;5075444;28;20545;-71
2024/03/10 06:41:03;;;;;;;47.00;29.60;;;;;;;;;;5073499;28;20455;-72
2024/03/10 06:43:29;;;;;;;53.90;32.60;;;;;;;;;;5074003;28;20436;-71
2024/03/10 06:45:55;;;;;;;52.13;32.53;;;;;;;;;;5074916;28;20510;-72
2024/03/10 06:48:22;;;;;;;54.33;34.33;;;;;;;;;;5075812;28;20443;-71
2024/03/10 06:50:49;;;;;;;48.97;33.23;;;;;;;;;;5075668;28;20440;-71
2024/03/10 06:53:15;;;;;;;51.47;32.10;;;;;;;;;;5075874;28;20452;-72
2024/03/10 06:55:43;;;;;;;50.47;31.77;;;;;;;;;;5073950;28;20502;-71
2024/03/10 06:58:11;;;;;;;49.87;32.23;;;;;;;;;;5074634;28;20523;-71
2024/03/10 07:00:37;;;;;;;49.70;31.93;;;;;;;;;;5075004;28;20488;-72
2024/03/10 07:03:04;;;;;;;47.97;30.40;;;;;;;;;;5075675;28;20519;-72
2024/03/10 07:05:31;;;;;;;50.80;31.67;;;;;;;;;;5075379;28;20452;-72
2024/03/10 07:07:57;;;;;;;48.40;31.63;;;;;;;;;;5075912;28;20475;-71
2024/03/10 07:10:23;;;;;;;46.70;31.20;;;;;;;;;;5075130;28;20759;-72
2024/03/10 07:12:51;;;;;;;46.20;31.17;;;;;;;;;;5076579;28;20457;-71
2024/03/10 07:15:18;;;;;;;50.07;31.90;;;;;;;;;;5079032;28;20464;-71
2024/03/10 07:17:44;;;;;;;49.37;32.50;;;;;;;;;;5075192;28;20559;-70
2024/03/10 07:20:11;;;;;;;47.00;31.50;;;;;;;;;;5075728;28;20459;-71
2024/03/10 07:22:38;;;;;;;48.80;31.80;;;;;;;;;;5076724;28;20482;-71
2024/03/10 07:25:05;;;;;;;52.77;32.40;;;;;;;;;;5078609;28;20452;-70
2024/03/10 07:27:32;;;;;;;51.60;31.80;;;;;;;;;;5075764;28;20975;-70
2024/03/10 07:30:01;;;;;;;48.40;31.53;;;;;;;;;;5075063;28;20458;-71
2024/03/10 07:32:27;;;;;;;46.20;32.40;;;;;;;;;;5072131;28;20454;-71
2024/03/10 07:34:53;;;;;;;48.63;32.10;;;;;;;;;;5076702;28;20464;-71
2024/03/10 07:37:21;;;;;;;53.47;33.23;;;;;;;;;;5077782;28;20467;-71
2024/03/10 07:39:47;;;;;;;47.33;30.20;;;;;;;;;;5076100;28;20734;-71
2024/03/10 07:42:15;;;;;;;47.33;31.07;;;;;;;;;;5076492;28;20452;-71
2024/03/10 07:44:42;;;;;;;47.53;31.17;;;;;;;;;;5076537;28;20478;-74
2024/03/10 07:47:09;;;;;;;47.27;31.13;;;;;;;;;;5075486;28;20451;-75
2024/03/10 07:49:36;;;;;;;45.73;30.43;;;;;;;;;;5076563;28;20818;-75
2024/03/10 07:52:02;;;;;;;44.73;30.63;;;;;;;;;;5076018;28;20531;-75
2024/03/10 07:54:29;;;;;;;40.90;29.93;;;;;;;;;;5076087;28;20444;-75
2024/03/10 07:56:55;;;;;;;43.37;30.30;;;;;;;;;;5076025;28;20833;-74
2024/03/10 07:59:22;;;;;;;46.33;32.53;;;;;;;;;;5076142;28;20510;-74
2024/03/10 08:01:49;;;;;;;46.00;29.80;;;;;;;;;;5075601;28;20439;-74
2024/03/10 08:04:17;;;;;;;44.63;31.00;;;;;;;;;;5075381;28;20455;-75
2024/03/10 08:06:43;;;;;;;39.40;28.60;;;;;;;;;;5076086;28;20539;-75
2024/03/10 08:09:15;;;;;;;42.30;29.73;;;;;;;;;;5075180;28;20447;-75
2024/03/10 08:11:41;;;;;;;45.90;30.50;;;;;;;;;;5074599;28;20833;-75
2024/03/10 08:14:08;;;;;;;43.17;30.23;;;;;;;;;;5081034;28;20448;-75
2024/03/10 08:16:34;;;;;;;47.87;30.00;;;;;;;;;;5068655;28;20476;-75
2024/03/10 08:19:01;;;;;;;39.87;28.43;;;;;;;;;;5079992;28;20487;-75
2024/03/10 08:21:29;;;;;;;45.10;30.20;;;;;;;;;;5081382;28;20515;-75
2024/03/10 08:23:55;;;;;;;42.00;30.63;;;;;;;;;;5080304;28;20904;-75
2024/03/10 08:26:22;;;;;;;43.70;28.13;;;;;;;;;;5070970;28;20461;-79
2024/03/10 08:28:49;;;;;;;44.63;30.20;;;;;;;;;;5081186;28;20486;-81
2024/03/10 08:31:16;;;;;;;42.23;30.60;;;;;;;;;;5083073;28;20559;-80
2024/03/10 08:33:45;;;;;;;37.83;27.60;;;;;;;;;;5076583;28;20483;-80
2024/03/10 08:36:12;;;;;;;43.70;28.87;;;;;;;;;;5082670;28;20479;-82
2024/03/10 08:38:40;;;;;;;38.63;27.30;;;;;;;;;;5077921;28;20518;-82
2024/03/10 08:41:06;;;;;;;37.30;27.63;;;;;;;;;;5081666;28;20663;-80
2024/03/10 08:43:33;;;;;;;40.90;28.83;;;;;;;;;;5080821;28;20447;-82
2024/03/10 08:46:02;;;;;;;38.60;28.23;;;;;;;;;;5078481;28;20481;-83
2024/03/10 08:48:28;;;;;;;38.70;28.67;;;;;;;;;;5081401;28;20448;-83
2024/03/10 08:50:55;;;;;;;38.67;26.80;;;;;;;;;;5079927;28;20463;-82
2024/03/10 08:53:21;;;;;;;38.93;27.83;;;;;;;;;;5079265;28;20462;-82
2024/03/10 08:55:50;;;;;;;34.23;27.00;;;;;;;;;;5081898;28;20522;-83
2024/03/10 08:58:17;;;;;;;37.40;26.27;;;;;;;;;;5081429;28;20495;-83
2024/03/10 09:00:44;;;;;;;39.07;26.60;;;;;;;;;;5080769;28;20479;-83
2024/03/10 09:03:11;;;;;;;34.23;26.70;;;;;;;;;;5079830;28;20463;-81
2024/03/10 09:05:37;;;;;;;44.10;29.03;;;;;;;;;;5079673;28;20474;-68
2024/03/10 09:08:04;;;;;;;34.77;27.47;;;;;;;;;;5078234;28;20515;-67
2024/03/10 09:10:30;;;;;;;36.53;26.47;;;;;;;;;;5080356;28;20443;-68
2024/03/10 09:12:58;;;;;;;37.23;27.30;;;;;;;;;;5079457;28;20462;-67
2024/03/10 09:15:24;;;;;;;35.30;29.50;;;;;;;;;;5080278;28;20538;-68
2024/03/10 09:17:52;;;;;;;38.53;29.77;;;;;;;;;;5077132;28;21039;-68
2024/03/10 09:20:20;;;;;;;35.33;28.87;;;;;;;;;;5078229;28;20585;-62
2024/03/10 09:22:47;;;;;;;36.77;29.00;;;;;;;;;;5074111;28;20512;-66
2024/03/10 09:25:21;;;;;;;38.03;28.67;;;;;;;;;;5078724;28;20460;-66
2024/03/10 09:27:47;;;;;;;37.03;28.23;;;;;;;;;;5082129;28;20455;-66
2024/03/10 09:30:17;;;;;;;39.80;30.33;;;;;;;;;;5077250;28;20452;-66
2024/03/10 09:32:45;;;;;;;42.37;28.93;;;;;;;;;;5076985;28;20996;-67
2024/03/10 09:35:12;;;;;;;42.03;29.60;;;;;;;;;;5076127;28;20460;-65
2024/03/10 09:37:39;;;;;;;38.80;29.13;;;;;;;;;;5078494;28;20556;-67
2024/03/10 09:40:07;;;;;;;36.80;28.97;;;;;;;;;;5076079;28;20888;-67
2024/03/10 09:42:34;;;;;;;38.07;28.73;;;;;;;;;;5079006;28;20448;-67
2024/03/10 09:45:01;;;;;;;39.77;29.30;;;;;;;;;;5087731;28;20448;-67
2024/03/10 09:47:29;;;;;;;38.43;30.53;;;;;;;;;;5075591;28;20483;-65
2024/03/10 09:49:55;;;;;;;44.57;32.23;;;;;;;;;;5078203;28;20526;-65
2024/03/10 09:52:22;;;;;;;40.77;28.63;;;;;;;;;;5072335;28;20472;-65
2024/03/10 09:54:48;;;;;;;38.27;30.90;;;;;;;;;;5078487;28;20459;-66
2024/03/10 09:57:14;;;;;;;44.03;31.70;;;;;;;;;;5081344;28;20511;-69
2024/03/10 09:59:43;;;;;;;42.20;30.40;;;;;;;;;;5079842;28;20544;-65
2024/03/10 10:02:13;;;;;;;38.30;30.80;;;;;;;;;;5084043;28;20447;-65
2024/03/10 10:04:46;;;;;;;42.13;30.17;;;;;;;;;;5079046;28;20546;-67
2024/03/10 10:07:13;;;;;;;37.33;30.87;;;;;;;;;;5077738;28;20464;-66
2024/03/10 10:09:39;;;;;;;39.93;32.00;;;;;;;;;;5073558;28;20880;-66
2024/03/10 10:12:07;;;;;;;43.13;32.23;;;;;;;;;;5077568;28;20488;-68
2024/03/10 10:14:33;;;;;;;38.67;31.97;;;;;;;;;;5079011;28;20450;-65
2024/03/10 10:17:00;;;;;;;44.13;34.57;;;;;;;;;;5077229;28;20527;-65
2024/03/10 10:19:29;;;;;;;41.00;31.90;;;;;;;;;;5081380;28;20487;-67
2024/03/10 10:21:58;;;;;;;43.67;33.53;;;;;;;;;;5084791;28;20452;-68
2024/03/10 10:24:24;;;;;;;40.17;29.57;;;;;;;;;;5078732;28;20542;-68
2024/03/10 10:27:02;;;;;;;39.17;31.00;;;;;;;;;;5075479;28;20480;-68
2024/03/10 10:29:29;;;;;;;39.73;32.53;;;;;;;;;;5073980;28;20467;-66
2024/03/10 10:31:56;;;;;;;38.80;31.10;;;;;;;;;;5082580;28;20538;-77
2024/03/10 10:34:23;;;;;;;41.83;32.70;;;;;;;;;;5076853;28;20471;-74
2024/03/10 10:36:54;;;;;;;40.37;30.90;;;;;;;;;;5079891;28;20444;-74
2024/03/10 10:39:26;;;;;;;39.47;31.60;;;;;;;;;;5077071;28;20551;-71
2024/03/10 10:41:55;;;;;;;42.20;32.50;;;;;;;;;;5074782;28;20494;-74
2024/03/10 10:44:22;;;;;;;40.57;31.90;;;;;;;;;;5073574;28;20456;-72
2024/03/10 10:46:49;;;;;;;44.60;33.37;;;;;;;;;;5075844;28;20468;-70
2024/03/10 10:49:16;;;;;;;44.17;31.80;;;;;;;;;;5077481;28;20559;-69
2024/03/10 10:51:45;;;;;;;39.57;31.17;;;;;;;;;;5079925;28;20531;-77
2024/03/10 10:54:12;;;;;;;41.73;30.30;;;;;;;;;;5071323;28;20463;-83
2024/03/10 10:56:40;;;;;;;41.20;32.80;;;;;;;;;;5070526;28;20530;-75
2024/03/10 10:59:07;;;;;;;40.40;32.20;;;;;;;;;;5072389;28;20530;-71
2024/03/10 11:01:33;;;;;;;42.70;33.23;;;;;;;;;;5077044;28;20490;-71
2024/03/10 11:03:59;;;;;;;38.63;30.60;;;;;;;;;;5069640;28;20978;-65
2024/03/10 11:06:27;;;;;;;40.77;31.60;;;;;;;;;;5077043;28;20478;-68
2024/03/10 11:08:54;;;;;;;38.30;30.07;;;;;;;;;;5077221;28;20489;-71
2024/03/10 11:11:35;;;;;;;38.07;32.63;;;;;;;;;;5079742;28;20516;-70
2024/03/10 11:14:03;;;;;;;37.73;30.00;;;;;;;;;;5074919;28;20476;-70
2024/03/10 11:16:33;;;;;;;37.70;33.57;;;;;;;;;;5075855;28;20503;-75
2024/03/10 11:19:11;;;;;;;44.63;33.80;;;;;;;;;;5075935;28;21332;-69
2024/03/10 11:21:38;;;;;;;41.43;33.70;;;;;;;;;;5074081;28;20483;-77
2024/03/10 11:24:08;;;;;;;45.47;35.07;;;;;;;;;;5077071;28;20444;-73
2024/03/10 11:26:35;;;;;;;45.03;34.50;;;;;;;;;;5071225;28;20475;-70
2024/03/10 11:29:04;;;;;;;41.77;31.87;;;;;;;;;;5068501;28;20506;-70
2024/03/10 11:31:39;;;;;;;40.23;33.40;;;;;;;;;;5072254;28;20451;-69
2024/03/10 11:34:07;;;;;;;47.77;36.03;;;;;;;;;;5072534;28;21050;-73
2024/03/10 11:36:35;;;;;;;44.73;35.80;;;;;;;;;;5071250;28;20455;-72
2024/03/10 11:39:02;;;;;;;44.03;34.67;;;;;;;;;;5070034;28;20487;-73
2024/03/10 11:41:29;;;;;;;47.57;36.77;;;;;;;;;;5068964;28;20996;-72
2024/03/10 11:43:55;;;;;;;40.27;33.70;;;;;;;;;;5079258;28;20479;-72
2024/03/10 11:46:25;;;;;;;39.60;31.40;;;;;;;;;;5077828;28;20445;-71
2024/03/10 11:48:52;;;;;;;39.20;32.50;;;;;;;;;;5074392;28;20472;-73
2024/03/10 11:51:19;;;;;;;42.30;32.83;;;;;;;;;;5076218;28;20443;-73
2024/03/10 11:53:45;;;;;;;44.80;34.40;;;;;;;;;;5081729;28;20535;-73
2024/03/10 11:56:14;;;;;;;36.50;31.27;;;;;;;;;;5075318;28;20460;-72
2024/03/10 11:58:41;;;;;;;39.20;31.17;;;;;;;;;;5082266;28;20491;-73
2024/03/10 12:01:10;;;;;;;41.90;32.90;;;;;;;;;;5077605;28;20722;-73
2024/03/10 12:03:38;;;;;;;47.73;36.87;;;;;;;;;;5079914;28;20448;-73
2024/03/10 12:06:05;;;;;;;47.33;35.23;;;;;;;;;;5084057;28;20484;-73
2024/03/10 12:08:32;;;;;;;50.13;38.30;;;;;;;;;;5076509;28;20452;-74
2024/03/10 12:10:59;;;;;;;45.57;35.67;;;;;;;;;;5071384;28;20484;-73
2024/03/10 12:13:26;;;;;;;40.80;35.47;;;;;;;;;;5075108;28;20460;-73
2024/03/10 12:15:55;;;;;;;44.93;34.87;;;;;;;;;;5080415;28;20939;-72
2024/03/10 12:18:22;;;;;;;38.40;32.60;;;;;;;;;;5068935;28;20542;-72
2024/03/10 12:20:51;;;;;;;50.47;37.20;;;;;;;;;;5076044;28;20514;-71
2024/03/10 12:23:18;;;;;;;44.47;35.37;;;;;;;;;;5077050;28;20444;-73
2024/03/10 12:25:44;;;;;;;39.83;33.40;;;;;;;;;;5074041;28;20533;-72
2024/03/10 12:28:13;;;;;;;42.23;33.97;;;;;;;;;;5079695;28;20543;-73
2024/03/10 12:30:40;;;;;;;40.97;33.63;;;;;;;;;;5073823;28;20497;-73
2024/03/10 12:33:08;;;;;;;40.27;32.53;;;;;;;;;;5076139;28;20452;-70
2024/03/10 12:35:35;;;;;;;41.50;34.10;;;;;;;;;;5076128;28;20452;-73
2024/03/10 12:38:03;;;;;;;38.20;33.20;;;;;;;;;;5078887;28;20471;-74
2024/03/10 12:40:31;;;;;;;37.43;32.00;;;;;;;;;;5076821;28;20479;-73
2024/03/10 12:42:59;;;;;;;36.70;32.70;;;;;;;;;;5075871;28;20454;-73
2024/03/10 12:45:27;;;;;;;38.27;31.53;;;;;;;;;;5078409;28;20578;-72
2024/03/10 12:47:54;;;;;;;38.40;31.60;;;;;;;;;;5072909;28;20456;-73
2024/03/10 12:50:21;;;;;;;38.63;31.43;;;;;;;;;;5076530;28;20478;-71
2024/03/10 12:52:47;;;;;;;37.87;31.20;;;;;;;;;;5077406;28;20491;-74
2024/03/10 12:55:15;;;;;;;35.60;29.53;;;;;;;;;;5067828;28;20471;-72
2024/03/10 12:57:42;;;;;;;34.87;29.73;;;;;;;;;;5076485;28;20475;-71
2024/03/10 13:00:22;;;;;;;34.23;29.20;;;;;;;;;;5078794;28;20525;-70
2024/03/10 13:02:49;;;;;;;35.60;28.97;;;;;;;;;;5083483;28;20838;-73
2024/03/10 13:05:16;;;;;;;33.23;28.67;;;;;;;;;;5078959;28;20510;-72
2024/03/10 13:07:42;;;;;;;36.23;29.57;;;;;;;;;;5078528;28;20459;-73
2024/03/10 13:10:10;;;;;;;31.70;27.60;;;;;;;;;;5077148;28;20452;-73
2024/03/10 13:12:38;;;;;;;32.93;28.73;;;;;;;;;;5076646;28;20578;-73
2024/03/10 13:15:06;;;;;;;29.80;26.17;;;;;;;;;;5076615;28;20850;-72
2024/03/10 13:17:32;;;;;;;32.53;28.93;;;;;;;;;;5077581;28;20530;-71
2024/03/10 13:20:00;;;;;;;30.53;26.73;;;;;;;;;;5077476;28;20780;-72
2024/03/10 13:22:26;;;;;;;31.90;26.80;;;;;;;;;;5076011;28;20449;-70
2024/03/10 13:24:53;;;;;;;33.57;28.67;;;;;;;;;;5076841;28;20487;-71
2024/03/10 13:27:19;;;;;;;27.93;24.50;;;;;;;;;;5077596;28;20983;-71
2024/03/10 13:29:48;;;;;;;31.60;27.60;;;;;;;;;;5081208;28;20545;-71
2024/03/10 13:32:15;;;;;;;28.67;25.47;;;;;;;;;;5080188;28;20470;-73
2024/03/10 13:34:42;;;;;;;30.67;26.90;;;;;;;;;;5080040;28;20467;-82
2024/03/10 13:37:09;;;;;;;32.53;27.60;;;;;;;;;;5077992;28;20472;-79
2024/03/10 13:39:35;;;;;;;31.00;27.70;;;;;;;;;;5075783;28;20944;-78
2024/03/10 13:42:03;;;;;;;32.00;28.70;;;;;;;;;;5080295;28;21160;-78
2024/03/10 13:44:30;;;;;;;32.83;27.67;;;;;;;;;;5084486;28;20524;-81
2024/03/10 13:46:58;;;;;;;29.60;26.00;;;;;;;;;;5083934;28;20444;-79
2024/03/10 13:49:24;;;;;;;28.90;24.77;;;;;;;;;;5076342;28;21103;-80
2024/03/10 13:51:51;;;;;;;30.83;27.60;;;;;;;;;;5077379;28;20448;-81
2024/03/10 13:54:18;;;;;;;30.00;26.73;;;;;;;;;;5077640;28;20504;-78
2024/03/10 13:56:45;;;;;;;28.60;25.50;;;;;;;;;;5075898;28;20502;-77
2024/03/10 13:59:12;;;;;;;29.40;26.30;;;;;;;;;;5078879;28;20558;-81
2024/03/10 14:01:39;;;;;;;26.83;23.93;;;;;;;;;;5076019;28;20483;-80
2024/03/10 14:04:07;;;;;;;29.77;25.97;;;;;;;;;;5079260;28;20979;-81
2024/03/10 14:06:34;;;;;;;30.17;25.27;;;;;;;;;;5076920;28;21034;-80
2024/03/10 14:09:01;;;;;;;30.57;25.70;;;;;;;;;;5079780;28;20479;-80
2024/03/10 14:11:28;;;;;;;30.57;27.27;;;;;;;;;;5077652;28;20774;-79
2024/03/10 14:13:54;;;;;;;27.33;23.93;;;;;;;;;;5076277;28;21111;-81
2024/03/10 14:16:21;;;;;;;27.67;24.40;;;;;;;;;;5084882;28;20579;-77
2024/03/10 14:18:48;;;;;;;28.70;23.83;;;;;;;;;;5082419;28;20558;-79
2024/03/10 14:21:15;;;;;;;26.03;23.27;;;;;;;;;;5079374;28;20516;-80
2024/03/10 14:23:42;;;;;;;29.80;25.33;;;;;;;;;;5083195;28;20475;-79
2024/03/10 14:26:09;;;;;;;29.37;25.83;;;;;;;;;;5078789;28;20466;-80
2024/03/10 14:28:36;;;;;;;29.13;26.03;;;;;;;;;;5077993;28;20483;-79
2024/03/10 14:31:03;;;;;;;28.60;25.60;;;;;;;;;;5080696;28;20463;-77
2024/03/10 14:33:30;;;;;;;27.33;24.00;;;;;;;;;;5077992;28;20444;-80
2024/03/10 14:35:56;;;;;;;28.30;24.83;;;;;;;;;;5083613;28;21018;-80